Time;durP1;ratioP1;P1;durP2;ratioP2;P2;SDS_P1;SDS_P2;PMS_P1;PMS_P2;Temp;Humidity;BMP_temperature;BMP_pressure;BME280_temperature;BME280_humidity;BME280_pressure;Samples;Min_cycle;Max_cycle;Signal;HPM_P1;HPM_P2
2021/04/29 00:01:17;;;;;;;6.53;3.83;;;;;;;6.61;46.27;95899.39;1745771;82;21107;-83
2021/04/29 00:03:44;;;;;;;8.58;4.10;;;;;;;6.48;46.80;95902.10;1749955;81;21118;-83
2021/04/29 00:06:12;;;;;;;7.25;4.28;;;;;;;6.30;47.09;95900.03;1704812;83;21450;-83
2021/04/29 00:08:39;;;;;;;8.40;4.58;;;;;;;6.47;47.21;95896.55;1732921;81;21113;-83
2021/04/29 00:11:09;;;;;;;9.80;4.33;;;;;;;6.36;47.49;95900.30;1733798;82;21153;-83
2021/04/29 00:13:37;;;;;;;8.13;4.20;;;;;;;6.37;47.86;95895.82;1735059;81;21114;-83
2021/04/29 00:16:05;;;;;;;7.15;3.85;;;;;;;6.48;47.56;95898.16;1718726;82;21134;-83
2021/04/29 00:18:33;;;;;;;8.15;4.22;;;;;;;6.67;47.17;95894.91;1795814;80;21135;-83
2021/04/29 00:21:00;;;;;;;6.78;3.85;;;;;;;6.75;46.79;95891.70;1794279;80;21579;-83
2021/04/29 00:23:29;;;;;;;9.05;4.25;;;;;;;6.80;46.83;95891.16;1794852;80;21087;-83
2021/04/29 00:25:57;;;;;;;7.70;4.53;;;;;;;6.83;46.79;95903.00;1782459;80;21120;-83
2021/04/29 00:28:25;;;;;;;7.60;3.87;;;;;;;6.75;46.76;95896.96;1755060;81;21355;-83
2021/04/29 00:30:52;;;;;;;8.55;4.15;;;;;;;6.69;47.06;95895.42;1756282;80;21182;-83
2021/04/29 00:33:19;;;;;;;8.98;3.92;;;;;;;6.66;47.21;95894.13;1762092;81;21474;-83
2021/04/29 00:35:46;;;;;;;6.67;3.72;;;;;;;6.64;47.24;95891.50;1760652;81;21509;-83
2021/04/29 00:38:15;;;;;;;8.90;4.40;;;;;;;6.73;46.86;95889.86;1718577;83;21651;-83
2021/04/29 00:40:43;;;;;;;7.28;3.75;;;;;;;6.77;46.92;95893.55;1738850;81;21196;-83
2021/04/29 00:43:13;;;;;;;7.37;3.65;;;;;;;6.73;46.85;95889.86;1735792;82;21191;-83
2021/04/29 00:45:41;;;;;;;8.50;3.72;;;;;;;6.74;46.72;95888.80;1758051;80;21128;-83
2021/04/29 00:48:09;;;;;;;8.83;3.40;;;;;;;6.80;46.54;95893.80;1731715;81;21128;-83
2021/04/29 00:50:36;;;;;;;4.78;2.90;;;;;;;6.84;46.52;95887.44;1723203;81;21155;-83
2021/04/29 00:53:03;;;;;;;7.67;3.80;;;;;;;6.91;46.31;95885.84;1750357;81;21146;-83
2021/04/29 00:55:30;;;;;;;7.55;3.35;;;;;;;6.92;46.27;95884.78;1740874;82;21319;-83
2021/04/29 00:57:57;;;;;;;6.92;3.60;;;;;;;6.89;46.33;95887.94;1758038;81;21076;-83
2021/04/29 01:00:27;;;;;;;7.42;4.30;;;;;;;6.85;46.33;95892.97;1735089;81;21185;-83
2021/04/29 01:03:11;;;;;;;8.00;4.25;;;;;;;6.73;46.67;95889.86;1716189;82;21155;-83
2021/04/29 01:05:52;;;;;;;9.48;4.50;;;;;;;6.64;46.74;95890.98;1739704;81;21110;-83
2021/04/29 01:08:30;;;;;;;7.90;3.70;;;;;;;6.59;46.96;95892.30;1741456;82;21184;-84
2021/04/29 01:11:08;;;;;;;7.72;3.83;;;;;;;6.53;47.53;95891.54;1697628;84;21111;-84
2021/04/29 01:13:38;;;;;;;14.58;6.22;;;;;;;6.22;48.70;95883.50;1724468;83;21196;-84
2021/04/29 01:16:08;;;;;;;8.20;4.12;;;;;;;6.02;48.84;95883.53;1724377;83;21131;-83
2021/04/29 01:18:37;;;;;;;9.03;3.95;;;;;;;6.21;48.54;95880.08;1727505;82;21150;-84
2021/04/29 01:21:14;;;;;;;7.90;4.12;;;;;;;6.45;48.05;95882.08;1718056;83;21173;-84
2021/04/29 01:23:58;;;;;;;8.00;3.98;;;;;;;6.68;47.64;95885.42;1701561;83;21104;-83
2021/04/29 01:26:53;;;;;;;9.28;3.75;;;;;;;6.72;47.52;95877.23;1701599;83;21161;-83
2021/04/29 01:29:32;;;;;;;5.53;3.72;;;;;;;6.72;47.32;95875.13;1708561;83;21184;-83
2021/04/29 01:32:01;;;;;;;6.62;3.98;;;;;;;6.71;47.19;95863.02;1716842;83;21143;-83
2021/04/29 01:34:32;;;;;;;7.60;3.87;;;;;;;6.67;47.25;95862.77;1700913;83;21528;-83
2021/04/29 01:37:00;;;;;;;6.95;4.37;;;;;;;6.50;47.65;95864.44;1721462;82;21159;-83
2021/04/29 01:39:28;;;;;;;7.90;4.05;;;;;;;6.39;47.77;95870.01;1718087;83;21140;-83
2021/04/29 01:41:56;;;;;;;7.12;3.75;;;;;;;6.32;47.83;95865.02;1721770;83;21104;-83
2021/04/29 01:44:26;;;;;;;6.25;3.35;;;;;;;6.32;47.86;95872.91;1724154;83;21124;-83
2021/04/29 01:46:56;;;;;;;5.47;2.33;;;;;;;6.32;47.94;95874.23;1712552;83;21180;-83
2021/04/29 01:49:24;;;;;;;8.33;3.70;;;;;;;6.28;48.03;95869.25;1723892;83;21139;-83
2021/04/29 01:51:53;;;;;;;8.18;3.50;;;;;;;6.25;48.02;95872.42;1724575;83;21550;-83
2021/04/29 01:54:22;;;;;;;5.87;3.80;;;;;;;6.29;47.99;95873.45;1726503;83;21152;-83
2021/04/29 01:56:50;;;;;;;8.58;3.98;;;;;;;6.30;47.97;95873.72;1704646;83;21155;-83
2021/04/29 01:59:17;;;;;;;6.80;3.50;;;;;;;6.28;48.66;95865.83;1710215;83;21171;-83
2021/04/29 02:01:47;;;;;;;8.48;4.05;;;;;;;6.04;50.18;95857.20;1710167;83;21151;-83
2021/04/29 02:04:14;;;;;;;5.53;3.00;;;;;;;5.83;50.66;95868.81;1704526;83;21136;-83
2021/04/29 02:06:44;;;;;;;6.97;3.77;;;;;;;5.65;50.82;95861.74;1722908;83;21136;-84
2021/04/29 02:09:12;;;;;;;6.08;3.80;;;;;;;5.66;50.50;95859.91;1728396;81;21132;-83
2021/04/29 02:11:59;;;;;;;6.60;3.25;;;;;;;5.75;50.60;95855.66;1750896;82;21320;-83
2021/04/29 02:14:40;;;;;;;6.92;4.00;;;;;;;5.84;50.67;95850.13;1715344;83;21185;-83
2021/04/29 02:17:40;;;;;;;6.00;3.80;;;;;;;5.85;50.34;95851.70;1746373;82;21176;-83
2021/04/29 02:20:11;;;;;;;6.92;3.42;;;;;;;5.96;50.20;95849.88;1703407;81;21203;-83
2021/04/29 02:22:42;;;;;;;6.28;3.02;;;;;;;6.19;50.05;95848.48;1752187;80;21593;-83
2021/04/29 02:25:14;;;;;;;5.65;3.10;;;;;;;6.17;49.57;95846.64;1723274;83;21187;-84
2021/04/29 02:27:43;;;;;;;7.97;3.08;;;;;;;6.25;49.72;95847.42;1725943;83;21442;-84
2021/04/29 02:30:14;;;;;;;6.85;3.98;;;;;;;6.16;50.36;95842.44;1704467;83;21168;-83
2021/04/29 02:32:42;;;;;;;7.55;3.80;;;;;;;6.07;50.67;95838.28;1731162;82;21135;-83
2021/04/29 02:35:13;;;;;;;6.65;3.60;;;;;;;5.78;52.34;95851.20;1700597;83;21511;-84
2021/04/29 02:37:43;;;;;;;8.38;3.70;;;;;;;5.46;52.20;95844.12;1759735;80;21150;-83
2021/04/29 02:40:14;;;;;;;4.45;2.98;;;;;;;5.49;52.71;95848.85;1741318;80;21165;-84
2021/04/29 02:42:42;;;;;;;4.62;3.40;;;;;;;5.53;52.83;95845.98;1760351;80;21103;-84
2021/04/29 02:45:12;;;;;;;6.92;3.72;;;;;;;5.71;52.19;95849.36;1722329;83;21192;-83
2021/04/29 02:47:49;;;;;;;7.80;3.95;;;;;;;5.73;52.13;95850.41;1716605;81;21131;-83
2021/04/29 02:50:22;;;;;;;8.55;3.87;;;;;;;5.65;52.22;95855.70;1742900;82;21166;-83
2021/04/29 02:52:52;;;;;;;6.55;3.45;;;;;;;5.47;52.48;95856.22;1738874;82;21530;-83
2021/04/29 02:55:22;;;;;;;7.55;3.72;;;;;;;5.39;52.09;95858.08;1733851;82;21122;-83
2021/04/29 02:57:49;;;;;;;7.25;3.67;;;;;;;5.46;52.05;95854.12;1763839;81;21177;-83
2021/04/29 03:00:18;;;;;;;7.58;3.50;;;;;;;5.53;51.96;95856.49;1751413;80;21107;-83
2021/04/29 03:02:46;;;;;;;5.90;3.58;;;;;;;5.59;51.96;95856.73;1755389;81;21067;-83
2021/04/29 03:05:14;;;;;;;7.35;4.25;;;;;;;5.62;52.00;95854.36;1746461;81;21086;-83
2021/04/29 03:07:44;;;;;;;7.65;4.03;;;;;;;5.61;52.16;95855.94;1745626;82;21199;-83
2021/04/29 03:10:13;;;;;;;5.15;2.92;;;;;;;5.60;51.93;95859.63;1748998;81;21169;-84
2021/04/29 03:12:41;;;;;;;5.90;3.77;;;;;;;5.63;51.99;95861.22;1745107;81;21159;-83
2021/04/29 03:15:10;;;;;;;7.42;3.55;;;;;;;5.70;51.78;95861.47;1736147;81;21147;-84
2021/04/29 03:17:38;;;;;;;6.28;3.65;;;;;;;5.74;51.75;95859.34;1750228;81;21127;-83
2021/04/29 03:20:09;;;;;;;7.33;3.87;;;;;;;5.82;51.60;95864.08;1744119;82;21163;-83
2021/04/29 03:22:37;;;;;;;6.83;3.50;;;;;;;5.86;51.58;95860.39;1767270;80;21141;-83
2021/04/29 03:25:05;;;;;;;8.35;3.98;;;;;;;5.88;51.60;95850.38;1731606;83;21163;-83
2021/04/29 03:27:32;;;;;;;8.08;4.08;;;;;;;5.90;51.78;95851.72;1742045;82;21200;-83
2021/04/29 03:30:00;;;;;;;4.35;3.22;;;;;;;5.87;51.98;95856.17;1727740;81;21174;-83
2021/04/29 03:32:27;;;;;;;7.12;3.52;;;;;;;5.85;52.18;95856.97;1732658;82;21506;-83
2021/04/29 03:34:54;;;;;;;6.40;3.55;;;;;;;5.85;52.44;95846.45;1743332;82;21155;-83
2021/04/29 03:37:21;;;;;;;6.10;3.20;;;;;;;5.86;52.47;95851.97;1794174;80;21112;-83
2021/04/29 03:39:48;;;;;;;6.58;3.85;;;;;;;5.89;52.49;95855.90;1782833;80;21150;-83
2021/04/29 03:42:16;;;;;;;9.83;5.28;;;;;;;5.96;52.18;95851.19;1793502;80;21496;-83
2021/04/29 03:44:43;;;;;;;7.45;4.17;;;;;;;6.02;52.15;95855.37;1759605;81;21508;-83
2021/04/29 03:47:10;;;;;;;6.78;4.17;;;;;;;6.05;52.15;95855.36;1742129;81;21565;-83
2021/04/29 03:49:37;;;;;;;6.70;4.05;;;;;;;6.11;52.26;95852.47;1746353;81;21146;-83
2021/04/29 03:52:05;;;;;;;8.65;4.33;;;;;;;6.19;52.12;95858.51;1740496;82;21504;-83
2021/04/29 03:54:32;;;;;;;6.87;3.98;;;;;;;6.28;52.02;95857.41;1752911;80;21119;-83
2021/04/29 03:56:59;;;;;;;6.72;3.75;;;;;;;6.41;51.59;95862.09;1740939;82;21152;-83
2021/04/29 03:59:27;;;;;;;7.40;3.80;;;;;;;6.60;51.26;95862.80;1790418;80;21163;-83
2021/04/29 04:01:54;;;;;;;4.92;3.40;;;;;;;6.80;50.83;95860.86;1787795;80;21510;-83
2021/04/29 04:04:21;;;;;;;5.95;3.52;;;;;;;6.96;50.26;95860.23;1785118;80;21124;-83
2021/04/29 04:06:48;;;;;;;6.95;3.42;;;;;;;7.17;50.12;95861.41;1718849;83;21563;-83
2021/04/29 04:09:15;;;;;;;7.35;3.47;;;;;;;7.33;50.01;95858.95;1735348;82;21590;-83
2021/04/29 04:11:42;;;;;;;5.87;2.83;;;;;;;7.49;49.65;95856.44;1735394;82;21586;-83
2021/04/29 04:14:09;;;;;;;7.55;3.15;;;;;;;7.62;49.08;95852.38;1760408;80;21158;-83
2021/04/29 04:16:36;;;;;;;5.55;3.20;;;;;;;7.77;48.38;95862.00;1758290;80;21132;-83
2021/04/29 04:19:04;;;;;;;6.62;3.25;;;;;;;7.91;48.34;95855.02;1753333;80;21553;-83
2021/04/29 04:21:31;;;;;;;6.03;3.17;;;;;;;8.05;48.03;95855.92;1773281;80;21123;-83
2021/04/29 04:23:58;;;;;;;5.30;2.95;;;;;;;8.17;47.84;95852.90;1781881;80;21101;-83
2021/04/29 04:26:25;;;;;;;5.45;3.33;;;;;;;8.28;47.88;95852.48;1760077;81;21542;-83
2021/04/29 04:28:52;;;;;;;6.12;3.30;;;;;;;8.49;47.75;95854.39;1763427;80;21145;-83
2021/04/29 04:31:19;;;;;;;5.30;3.00;;;;;;;8.72;47.32;95860.69;1722735;81;21538;-83
2021/04/29 04:33:46;;;;;;;7.30;3.05;;;;;;;9.02;46.83;95856.09;1761762;80;21130;-83
2021/04/29 04:36:13;;;;;;;5.00;3.37;;;;;;;9.38;46.48;95857.12;1745965;81;21148;-83
2021/04/29 04:38:40;;;;;;;5.33;3.45;;;;;;;9.45;46.04;95858.88;1742792;81;21127;-83
2021/04/29 04:41:07;;;;;;;6.72;4.17;;;;;;;9.81;45.72;95858.27;1760029;80;21094;-84
2021/04/29 04:43:34;;;;;;;6.33;3.55;;;;;;;10.25;45.01;95863.59;1767410;80;21134;-84
2021/04/29 04:46:01;;;;;;;8.85;3.95;;;;;;;10.52;44.28;95854.87;1780236;80;21132;-84
2021/04/29 04:48:28;;;;;;;4.40;3.22;;;;;;;10.79;43.68;95854.05;1767751;80;21184;-83
2021/04/29 04:50:56;;;;;;;6.50;3.35;;;;;;;11.09;43.09;95850.73;1746416;81;21156;-84
2021/04/29 04:53:23;;;;;;;5.72;3.45;;;;;;;10.86;42.88;95853.13;1745597;80;21510;-83
2021/04/29 04:55:51;;;;;;;6.80;3.70;;;;;;;10.57;42.74;95847.62;1759715;80;21129;-83
2021/04/29 04:58:20;;;;;;;5.87;3.37;;;;;;;10.41;42.80;95846.33;1771893;80;21110;-83
2021/04/29 05:00:48;;;;;;;5.97;3.22;;;;;;;10.41;43.27;95846.33;1749513;81;21149;-84
2021/04/29 05:03:17;;;;;;;5.92;3.45;;;;;;;10.68;43.19;95848.95;1754431;81;21126;-83
2021/04/29 05:05:45;;;;;;;8.05;3.85;;;;;;;10.75;43.10;95850.44;1744733;81;21186;-83
2021/04/29 05:08:13;;;;;;;6.83;3.65;;;;;;;10.74;42.84;95852.84;1709284;84;21578;-84
2021/04/29 05:10:40;;;;;;;6.65;3.27;;;;;;;10.68;43.24;95851.61;1704890;83;21449;-83
2021/04/29 05:13:08;;;;;;;7.28;3.50;;;;;;;10.65;43.23;95842.14;1724662;82;21106;-84
2021/04/29 05:15:36;;;;;;;5.97;3.75;;;;;;;10.55;43.73;95843.66;1725228;82;21110;-83
2021/04/29 05:18:05;;;;;;;4.45;2.72;;;;;;;10.44;43.98;95842.33;1694207;83;21187;-84
2021/04/29 05:20:34;;;;;;;5.80;2.77;;;;;;;10.49;43.78;95842.22;1740766;82;21264;-84
2021/04/29 05:23:01;;;;;;;6.28;3.60;;;;;;;11.16;43.66;95833.88;1703640;82;21531;-83
2021/04/29 05:25:28;;;;;;;6.03;3.30;;;;;;;11.16;43.17;95835.74;1710336;83;21146;-84
2021/04/29 05:28:02;;;;;;;4.83;3.20;;;;;;;11.03;42.96;95836.03;1743130;80;21112;-83
2021/04/29 05:30:30;;;;;;;4.70;3.10;;;;;;;10.97;42.83;95841.97;1707952;81;21193;-83
2021/04/29 05:32:57;;;;;;;4.83;3.20;;;;;;;10.89;42.93;95833.95;1729919;80;21443;-83
2021/04/29 05:35:24;;;;;;;8.83;3.30;;;;;;;10.85;43.26;95834.31;1704748;83;21140;-83
2021/04/29 05:37:51;;;;;;;5.17;3.08;;;;;;;10.92;43.39;95832.03;1736304;82;21147;-83
2021/04/29 05:40:19;;;;;;;4.67;2.80;;;;;;;10.96;42.98;95835.09;1728993;82;21496;-83
2021/04/29 05:42:46;;;;;;;5.65;2.65;;;;;;;10.93;43.48;95824.31;1697973;83;21475;-83
2021/04/29 05:45:15;;;;;;;8.08;3.22;;;;;;;10.89;42.98;95824.67;1702568;83;21159;-84
2021/04/29 05:47:43;;;;;;;8.48;3.52;;;;;;;10.93;43.01;95828.29;1739007;80;21159;-84
2021/04/29 05:50:12;;;;;;;5.28;3.22;;;;;;;11.01;43.19;95832.89;1714463;81;21214;-83
2021/04/29 05:52:40;;;;;;;7.62;3.75;;;;;;;11.27;43.76;95824.60;1741860;82;21154;-83
2021/04/29 05:55:10;;;;;;;4.28;2.90;;;;;;;11.66;43.26;95835.06;1700244;83;21234;-83
2021/04/29 05:57:37;;;;;;;6.28;3.40;;;;;;;11.94;42.32;95831.73;1742457;82;21603;-83
2021/04/29 06:00:07;;;;;;;6.78;3.55;;;;;;;12.63;42.25;95831.97;1742297;81;21263;-84
2021/04/29 06:02:35;;;;;;;5.72;3.40;;;;;;;12.48;40.89;95827.88;1708290;83;21121;-84
2021/04/29 06:05:02;;;;;;;6.50;4.03;;;;;;;12.28;41.87;95823.13;1703436;83;21185;-84
2021/04/29 06:07:29;;;;;;;7.95;4.08;;;;;;;13.68;41.41;95823.49;1745685;80;21356;-84
2021/04/29 06:09:56;;;;;;;6.33;4.08;;;;;;;14.18;40.45;95819.64;1723534;83;21148;-84
2021/04/29 06:12:23;;;;;;;8.18;3.98;;;;;;;15.14;40.65;95813.45;1726554;83;21179;-84
2021/04/29 06:14:49;;;;;;;6.37;4.10;;;;;;;14.91;39.69;95816.75;1754507;80;21129;-84
2021/04/29 06:17:16;;;;;;;9.28;4.12;;;;;;;14.55;40.05;95808.20;1755823;80;21250;-83
2021/04/29 06:19:43;;;;;;;7.55;3.75;;;;;;;14.20;39.75;95809.44;1766862;80;21156;-84
2021/04/29 06:22:10;;;;;;;7.53;4.37;;;;;;;13.89;39.65;95805.72;1715899;82;21110;-84
2021/04/29 06:24:37;;;;;;;5.97;3.52;;;;;;;13.51;39.77;95809.63;1741275;81;21139;-84
2021/04/29 06:27:05;;;;;;;7.45;4.05;;;;;;;13.34;39.65;95811.77;1715155;83;21529;-84
2021/04/29 06:29:35;;;;;;;8.20;3.47;;;;;;;13.44;39.64;95816.00;1722980;81;21539;-84
2021/04/29 06:32:04;;;;;;;6.35;4.10;;;;;;;13.59;38.54;95810.19;1721798;83;21193;-84
2021/04/29 06:34:31;;;;;;;8.15;3.92;;;;;;;13.37;39.26;95812.47;1728267;82;21251;-84
2021/04/29 06:36:58;;;;;;;7.78;4.62;;;;;;;13.29;38.97;95811.40;1713941;83;21524;-84
2021/04/29 06:39:25;;;;;;;8.28;4.78;;;;;;;13.03;39.43;95799.95;1708171;83;21137;-84
2021/04/29 06:41:53;;;;;;;6.97;4.17;;;;;;;13.01;40.51;95795.48;1725841;82;21169;-84
2021/04/29 06:44:20;;;;;;;8.65;3.98;;;;;;;13.18;40.87;95790.70;1733263;83;21127;-84
2021/04/29 06:46:48;;;;;;;6.83;3.90;;;;;;;13.08;40.75;95797.12;1760067;80;21540;-83
2021/04/29 06:49:15;;;;;;;6.37;4.00;;;;;;;13.00;41.17;95801.36;1721311;82;21204;-84
2021/04/29 06:51:43;;;;;;;6.60;4.17;;;;;;;12.89;41.10;95785.47;1734701;82;21158;-84
2021/04/29 06:54:10;;;;;;;7.45;3.70;;;;;;;12.91;41.49;95801.11;1712555;83;21148;-84
2021/04/29 06:56:37;;;;;;;7.10;4.30;;;;;;;12.73;41.46;95789.13;1745383;81;21154;-84
2021/04/29 06:59:06;;;;;;;6.22;3.98;;;;;;;12.63;41.67;95787.31;1714551;83;21221;-84
2021/04/29 07:01:34;;;;;;;9.43;5.67;;;;;;;12.66;42.17;95789.34;1768476;80;21303;-83
2021/04/29 07:04:02;;;;;;;33.60;17.92;;;;;;;12.55;42.03;95786.77;1700864;83;21211;-84
2021/04/29 07:06:29;;;;;;;55.63;32.83;;;;;;;12.45;42.30;95797.92;1724573;82;21122;-84
2021/04/29 07:08:59;;;;;;;38.58;23.85;;;;;;;12.39;42.79;95789.88;1722715;83;21175;-84
2021/04/29 07:11:28;;;;;;;29.65;17.82;;;;;;;12.32;42.54;95798.05;1767909;80;21297;-84
2021/04/29 07:13:56;;;;;;;28.95;15.72;;;;;;;12.26;42.35;95793.98;1735496;81;21134;-84
2021/04/29 07:16:23;;;;;;;24.82;14.55;;;;;;;12.24;42.88;95790.27;1736768;81;21563;-84
2021/04/29 07:18:52;;;;;;;34.08;19.27;;;;;;;12.59;42.87;95796.47;1734610;81;21158;-84
2021/04/29 07:21:20;;;;;;;42.65;25.40;;;;;;;12.83;42.81;95800.03;1754218;80;21104;-84
2021/04/29 07:23:47;;;;;;;42.95;25.70;;;;;;;12.98;42.74;95798.23;1748478;80;21123;-84
2021/04/29 07:26:17;;;;;;;35.50;18.37;;;;;;;13.14;42.99;95797.20;1755771;80;21333;-84
2021/04/29 07:28:45;;;;;;;16.95;9.80;;;;;;;13.14;42.58;95803.08;1753702;80;21748;-84
2021/04/29 07:31:14;;;;;;;22.67;12.82;;;;;;;13.03;42.89;95798.62;1749951;81;21608;-84
2021/04/29 07:33:41;;;;;;;18.37;10.68;;;;;;;13.02;43.07;95792.52;1760272;80;21539;-84
2021/04/29 07:36:09;;;;;;;18.70;9.98;;;;;;;13.11;43.19;95789.08;1768730;80;21280;-84
2021/04/29 07:38:37;;;;;;;16.42;8.65;;;;;;;13.36;43.44;95779.74;1745360;81;21102;-84
2021/04/29 07:41:05;;;;;;;14.83;7.80;;;;;;;13.93;43.22;95783.46;1752086;81;21118;-84
2021/04/29 07:43:32;;;;;;;15.55;7.92;;;;;;;14.59;42.04;95789.66;1749033;81;21298;-84
2021/04/29 07:45:59;;;;;;;13.10;8.10;;;;;;;15.59;41.91;95790.58;1763488;80;21135;-84
2021/04/29 07:48:27;;;;;;;10.82;6.35;;;;;;;16.25;40.09;95793.17;1768855;80;21343;-84
2021/04/29 07:50:54;;;;;;;6.75;3.50;;;;;;;16.36;40.32;95784.94;1742916;79;21141;-84
2021/04/29 07:53:21;;;;;;;7.22;4.12;;;;;;;17.11;39.42;95785.84;1753344;81;21153;-84
2021/04/29 07:55:49;;;;;;;7.53;4.75;;;;;;;18.93;35.66;95780.42;1760723;80;21236;-85
2021/04/29 07:58:16;;;;;;;7.78;5.20;;;;;;;19.76;35.60;95782.27;1747619;80;21608;-82
2021/04/29 08:00:43;;;;;;;7.70;5.22;;;;;;;20.87;34.33;95770.77;1755374;79;21313;-83
2021/04/29 08:03:11;;;;;;;6.92;4.60;;;;;;;21.16;33.36;95775.95;1754283;80;21594;-82
2021/04/29 08:05:38;;;;;;;9.75;4.90;;;;;;;20.81;32.51;95779.52;1691715;83;21546;-82
2021/04/29 08:08:06;;;;;;;10.82;5.50;;;;;;;20.53;33.15;95769.89;1748669;81;21241;-82
2021/04/29 08:10:35;;;;;;;9.98;5.90;;;;;;;20.12;33.32;95776.34;1743666;80;21160;-82
2021/04/29 08:13:02;;;;;;;11.45;6.35;;;;;;;20.30;34.08;95772.61;1732124;82;21184;-82
2021/04/29 08:15:31;;;;;;;9.43;5.53;;;;;;;20.20;33.07;95774.56;1740000;82;21442;-82
2021/04/29 08:17:58;;;;;;;7.15;4.30;;;;;;;20.07;33.35;95773.19;1704181;83;21146;-82
2021/04/29 08:20:25;;;;;;;9.53;4.72;;;;;;;19.83;33.23;95776.43;1751977;80;21530;-82
2021/04/29 08:22:52;;;;;;;6.33;4.10;;;;;;;20.21;34.11;95770.73;1708511;83;21197;-82
2021/04/29 08:25:20;;;;;;;6.25;3.85;;;;;;;21.67;33.21;95766.52;1739519;82;21119;-82
2021/04/29 08:27:47;;;;;;;8.73;4.80;;;;;;;22.38;30.80;95755.83;1700298;83;21125;-82
2021/04/29 08:30:16;;;;;;;6.65;4.78;;;;;;;22.38;30.80;95755.83;1736398;82;21222;-82
2021/04/29 08:32:43;;;;;;;6.08;4.15;;;;;;;21.22;31.73;95756.19;1719177;83;21158;-83
2021/04/29 08:35:12;;;;;;;7.70;4.35;;;;;;;22.56;32.86;95750.55;1713722;83;21190;-82
2021/04/29 08:37:39;;;;;;;8.68;5.05;;;;;;;23.54;29.54;95745.22;1700425;83;21496;-82
2021/04/29 08:40:08;;;;;;;7.75;5.08;;;;;;;24.25;30.14;95742.63;1728667;82;21181;-82
2021/04/29 08:42:35;;;;;;;9.05;5.10;;;;;;;26.00;30.95;95740.87;1723167;83;21105;-82
2021/04/29 08:45:06;;;;;;;7.33;3.98;;;;;;;27.31;28.02;95737.30;1718529;83;21182;-83
2021/04/29 08:47:33;;;;;;;8.28;5.03;;;;;;;28.12;27.11;95739.50;1717750;81;21142;-82
2021/04/29 08:50:01;;;;;;;6.25;3.55;;;;;;;27.28;26.17;95735.41;1742598;82;21488;-82
2021/04/29 08:52:30;;;;;;;7.15;4.00;;;;;;;27.37;26.04;95737.05;1748204;81;21129;-82
2021/04/29 08:54:58;;;;;;;5.20;3.40;;;;;;;27.70;27.03;95728.06;1720184;83;21124;-82
2021/04/29 08:57:27;;;;;;;4.80;2.95;;;;;;;28.46;26.91;95738.61;1717296;83;21104;-82
2021/04/29 08:59:54;;;;;;;6.37;3.83;;;;;;;28.78;26.60;95734.71;1738006;82;21191;-82
2021/04/29 09:02:36;;;;;;;5.25;3.42;;;;;;;28.48;24.64;95726.69;1711607;83;21174;-83
2021/04/29 09:05:23;;;;;;;5.42;3.52;;;;;;;27.38;24.85;95727.11;1732089;80;21111;-85
2021/04/29 09:08:06;;;;;;;5.67;2.92;;;;;;;27.07;26.49;95735.86;1731135;80;21123;-84
2021/04/29 09:10:37;;;;;;;5.45;3.60;;;;;;;26.96;26.59;95727.01;1714720;83;21176;-84
2021/04/29 09:13:19;;;;;;;6.85;3.92;;;;;;;27.28;27.32;95720.44;1745695;81;21135;-84
2021/04/29 09:15:49;;;;;;;6.78;3.60;;;;;;;26.50;25.83;95724.19;1700135;83;21131;-85
2021/04/29 09:18:19;;;;;;;6.35;3.72;;;;;;;25.37;27.86;95722.44;1737064;82;21495;-84
2021/04/29 09:20:54;;;;;;;6.83;3.85;;;;;;;24.16;28.32;95726.75;1705021;83;21138;-84
2021/04/29 09:23:28;;;;;;;6.55;3.98;;;;;;;23.12;30.02;95722.87;1728293;82;21162;-84
2021/04/29 09:28:51;;;;;;;9.18;4.15;;;;;;;21.49;31.83;95717.80;1802609;79;22706;-83
2021/04/29 09:31:25;;;;;;;6.92;4.45;;;;;;;21.25;32.88;95720.42;1737353;81;21119;-84
2021/04/29 09:33:58;;;;;;;6.35;3.87;;;;;;;21.02;33.82;95717.84;1720234;81;21143;-84
2021/04/29 09:36:39;;;;;;;6.97;4.20;;;;;;;20.97;33.93;95722.98;1695629;84;21164;-83
2021/04/29 09:39:16;;;;;;;9.10;4.90;;;;;;;20.78;34.42;95722.34;1734894;82;21225;-83
2021/04/29 09:41:48;;;;;;;8.83;4.00;;;;;;;20.42;35.00;95723.21;1689672;84;21203;-83
2021/04/29 09:44:21;;;;;;;7.42;3.92;;;;;;;20.10;35.55;95724.80;1728635;83;21134;-83
2021/04/29 09:47:00;;;;;;;6.78;3.85;;;;;;;19.87;35.81;95722.72;1694533;83;21156;-83
2021/04/29 09:49:34;;;;;;;4.95;3.67;;;;;;;19.71;36.61;95724.75;1697002;84;21190;-84
2021/04/29 09:55:47;;;;;;;6.47;4.00;;;;;;;19.53;37.21;95710.37;1685767;84;21159;-84
2021/04/29 10:01:06;;;;;;;7.10;3.40;;;;;;;19.65;38.60;95699.27;1859641;76;23005;-84
2021/04/29 10:03:34;;;;;;;3.20;2.30;;;;;;;19.30;38.38;95707.47;1828524;77;21118;-83
2021/04/29 10:06:01;;;;;;;8.35;2.62;;;;;;;18.94;39.54;95710.80;1832868;77;21104;-84
2021/04/29 10:08:34;;;;;;;5.62;2.50;;;;;;;18.93;39.27;95701.97;1826317;77;21100;-83
2021/04/29 10:11:05;;;;;;;5.55;3.00;;;;;;;19.10;39.38;95691.92;1827263;77;21568;-84
2021/04/29 10:13:42;;;;;;;4.50;2.45;;;;;;;19.34;39.32;95682.20;1813327;78;21103;-84
2021/04/29 10:16:08;;;;;;;3.25;2.00;;;;;;;19.17;39.16;95688.81;1806713;78;21554;-84
2021/04/29 10:18:35;;;;;;;4.83;2.50;;;;;;;19.04;40.12;95681.26;1811792;78;21121;-84
2021/04/29 10:21:04;;;;;;;5.45;3.08;;;;;;;18.71;40.75;95682.52;1804312;77;21114;-83
2021/04/29 10:23:31;;;;;;;5.92;2.85;;;;;;;18.40;41.58;95684.72;1812331;78;21080;-84
2021/04/29 10:28:57;;;;;;;6.53;3.05;;;;;;;18.02;42.46;95685.42;1681314;84;21559;-84
2021/04/29 10:31:27;;;;;;;6.65;3.35;;;;;;;17.87;43.27;95692.88;1685766;84;21129;-84
2021/04/29 10:34:00;;;;;;;;;;;;;;;17.87;43.67;95689.64;1682171;84;21169;-84
2021/04/29 10:36:46;;;;;;;5.42;2.87;;;;;;;17.74;43.32;95695.68;1674198;84;20191;-84
2021/04/29 10:39:23;;;;;;;5.37;2.87;;;;;;;17.57;43.69;95690.61;1684450;84;21261;-84
2021/04/29 10:42:09;;;;;;;4.62;2.87;;;;;;;17.32;44.67;95685.98;1676554;84;21150;-84
2021/04/29 10:45:00;;;;;;;5.60;2.80;;;;;;;17.14;45.45;95698.11;1672137;84;21162;-84
2021/04/29 10:47:31;;;;;;;;;;;;;;;17.01;46.04;95692.02;1671198;84;21185;-84
2021/04/29 10:50:13;;;;;;;3.12;1.87;;;;;;;16.87;46.70;95695.64;1679112;84;20386;-83
2021/04/29 10:52:52;;;;;;;4.95;2.17;;;;;;;16.74;47.32;95688.22;1671850;84;21150;-83
2021/04/29 10:55:28;;;;;;;5.40;2.40;;;;;;;16.58;47.12;95696.16;1677918;84;21102;-84
2021/04/29 10:57:57;;;;;;;4.47;2.20;;;;;;;16.56;47.91;95697.61;1674161;84;21130;-84
2021/04/29 11:00:28;;;;;;;4.33;1.85;;;;;;;16.55;47.46;95699.52;1672214;84;21201;-84
2021/04/29 11:03:04;;;;;;;5.25;2.08;;;;;;;16.72;48.07;95700.38;1671912;84;21161;-84
2021/04/29 11:05:35;;;;;;;3.77;1.82;;;;;;;16.90;47.03;95694.98;1673016;84;21235;-84
2021/04/29 11:08:09;;;;;;;4.95;2.40;;;;;;;17.09;46.98;95692.45;1671234;84;21487;-84
2021/04/29 11:10:39;;;;;;;2.90;1.70;;;;;;;17.20;46.92;95694.08;1682066;84;21154;-84
2021/04/29 11:13:07;;;;;;;10.88;3.37;;;;;;;17.34;46.20;95684.30;1687977;84;21214;-84
2021/04/29 11:15:38;;;;;;;3.83;2.08;;;;;;;17.40;46.23;95683.68;1671959;84;21508;-84
2021/04/29 11:18:16;;;;;;;5.50;1.80;;;;;;;17.65;46.77;95691.58;1672671;84;21134;-84
2021/04/29 11:20:53;;;;;;;4.58;1.30;;;;;;;18.00;45.48;95680.94;1679427;84;21174;-85
2021/04/29 11:23:42;;;;;;;3.10;1.95;;;;;;;18.18;43.19;95663.93;1672748;84;21186;-84
2021/04/29 11:26:16;;;;;;;4.40;2.65;;;;;;;18.02;44.49;95678.15;1672066;84;21181;-84
2021/04/29 11:28:45;;;;;;;3.65;2.02;;;;;;;17.85;43.51;95678.48;1673008;84;21161;-84
2021/04/29 11:31:14;;;;;;;5.33;2.70;;;;;;;17.78;43.89;95668.39;1675248;84;21208;-84
2021/04/29 11:33:46;;;;;;;6.50;2.90;;;;;;;17.71;43.95;95673.56;1685628;84;21184;-84
2021/04/29 11:36:25;;;;;;;3.47;2.00;;;;;;;17.80;44.19;95673.40;1681760;84;21486;-84
2021/04/29 11:39:05;;;;;;;4.92;2.25;;;;;;;18.24;43.65;95662.52;1669051;84;21198;-84
2021/04/29 11:41:33;;;;;;;8.93;3.00;;;;;;;18.56;42.46;95682.76;1667160;84;21174;-84
2021/04/29 11:44:11;;;;;;;3.42;2.08;;;;;;;18.71;42.01;95679.05;1675730;84;21189;-84
2021/04/29 11:46:37;;;;;;;3.02;2.12;;;;;;;18.67;41.36;95683.02;1682162;84;21510;-84
2021/04/29 11:49:08;;;;;;;6.65;2.77;;;;;;;18.67;41.68;95678.42;1678629;84;21218;-84
2021/04/29 11:51:48;;;;;;;5.15;2.55;;;;;;;18.82;42.65;95695.59;1671785;84;21159;-84
2021/04/29 11:54:17;;;;;;;4.53;3.00;;;;;;;18.81;41.72;95678.50;1673546;84;21134;-84
2021/04/29 11:56:52;;;;;;;2.00;1.67;;;;;;;18.71;41.52;95687.11;1686439;84;21418;-84
2021/04/29 11:59:26;;;;;;;3.55;1.90;;;;;;;18.82;40.72;95679.48;1682538;84;21523;-84
2021/04/29 12:01:59;;;;;;;6.17;2.05;;;;;;;18.84;40.44;95676.44;1669820;84;21159;-85